Portada
METAR-TAF:

METAR-TAF

Aeroports :

Luang Namtha, Laos

latitud: 20-57-38N, longitud: 101-24-09E, altitud: 600 m

Observació

L'informe es va fer fa 51 minuts, a les 01:00 UTC
Vent 2 kt del Sud
Temperatura 22°C
Humitat 100%
Pressió 1018 hPa
Visibilitat: 1000 m
Núvols disperses a una alçada de 1000 ft
Cel cobert a una alçada de 9000 ft
plugim

METAR: VLLN 010100Z 18002KT 1000 DZ SCT010 OVC090 22/22 Q1018 NOSIG

Hora: 07:21 (01:51 UTC)

Pronòstic

L'informe es va fer fa 2 hores i 51 minuts, a les 23:00 UTC
Pronòstic vàlid del 01 a les 00 UTC al 01 a les 24 UTC
Vent 4 kt del Oest/Sud-Oest
Visibilitat: 9000 m
Núvols disperses a una alçada de 2000 ft
Núvols disperses a una alçada de 10000 ft

TAF: VLLN 312300Z 0100/0124 24004KT 9000 SCT020 SCT100

Observacions i pronòstics meteorològics de més de 4000 aeroports (METAR i TAF).

Les estacions disponibles són els punts grocs i vermells al mapa.

Posi el ratolí al punt desitjat per veure el nom de l'estació.

Feu clic per veure les observacions i els pronòstics meteorològics.

Per canviar el mapa: feu clic els botons verds amb una creu de color negre per apropar; al botó verd amb un guió per allunyar la imatge; o en les fletxes verdes per a mapes adjacents.


METAR-TAF: